sensor_id;sensor_type;location;lat;lon;timestamp;noise_LAeq;noise_LA_min;noise_LA_max;noise_LA01;noise_LA95
72686;Laerm;61365;52.162;4.500;2024-01-15T00:00:25;44.18;36.44;57.40;;
72686;Laerm;61365;52.162;4.500;2024-01-15T00:02:52;44.20;36.09;57.14;;
72686;Laerm;61365;52.162;4.500;2024-01-15T00:05:18;44.26;35.62;56.80;;
72686;Laerm;61365;52.162;4.500;2024-01-15T00:07:44;44.22;35.38;56.65;;
72686;Laerm;61365;52.162;4.500;2024-01-15T00:10:10;44.22;35.49;55.99;;
72686;Laerm;61365;52.162;4.500;2024-01-15T00:12:36;44.08;36.13;56.23;;
72686;Laerm;61365;52.162;4.500;2024-01-15T00:15:02;44.27;35.12;57.11;;
72686;Laerm;61365;52.162;4.500;2024-01-15T00:17:29;44.23;35.81;57.59;;
72686;Laerm;61365;52.162;4.500;2024-01-15T00:19:55;44.20;36.31;56.50;;
72686;Laerm;61365;52.162;4.500;2024-01-15T00:22:21;44.28;36.36;56.10;;
72686;Laerm;61365;52.162;4.500;2024-01-15T00:24:47;44.22;36.94;56.65;;
72686;Laerm;61365;52.162;4.500;2024-01-15T00:27:13;44.21;36.48;56.14;;
72686;Laerm;61365;52.162;4.500;2024-01-15T00:29:39;44.24;36.11;55.75;;
72686;Laerm;61365;52.162;4.500;2024-01-15T00:32:05;44.36;34.99;55.96;;
72686;Laerm;61365;52.162;4.500;2024-01-15T00:34:31;44.26;34.73;55.91;;
72686;Laerm;61365;52.162;4.500;2024-01-15T00:36:57;44.21;36.96;57.31;;
72686;Laerm;61365;52.162;4.500;2024-01-15T00:39:23;44.19;35.69;56.01;;
72686;Laerm;61365;52.162;4.500;2024-01-15T00:41:49;44.32;35.44;56.53;;
72686;Laerm;61365;52.162;4.500;2024-01-15T00:44:15;44.29;35.97;56.86;;
72686;Laerm;61365;52.162;4.500;2024-01-15T00:46:45;44.37;36.82;56.24;;
72686;Laerm;61365;52.162;4.500;2024-01-15T00:49:13;44.35;36.02;56.17;;
72686;Laerm;61365;52.162;4.500;2024-01-15T00:51:39;44.22;35.72;57.32;;
72686;Laerm;61365;52.162;4.500;2024-01-15T00:54:05;44.34;36.42;56.64;;
72686;Laerm;61365;52.162;4.500;2024-01-15T00:56:32;44.36;35.90;56.04;;
72686;Laerm;61365;52.162;4.500;2024-01-15T00:58:58;44.28;36.19;56.23;;
72686;Laerm;61365;52.162;4.500;2024-01-15T01:01:24;44.25;36.54;58.00;;
72686;Laerm;61365;52.162;4.500;2024-01-15T01:03:50;44.37;34.92;56.43;;
72686;Laerm;61365;52.162;4.500;2024-01-15T01:06:16;44.34;36.59;56.96;;
72686;Laerm;61365;52.162;4.500;2024-01-15T01:08:42;44.27;35.51;56.99;;
72686;Laerm;61365;52.162;4.500;2024-01-15T01:11:13;44.35;35.47;56.69;;
72686;Laerm;61365;52.162;4.500;2024-01-15T01:13:39;44.30;36.48;55.80;;
72686;Laerm;61365;52.162;4.500;2024-01-15T01:16:05;44.24;35.18;57.11;;
72686;Laerm;61365;52.162;4.500;2024-01-15T01:18:31;44.26;37.74;56.72;;
72686;Laerm;61365;52.162;4.500;2024-01-15T01:20:57;44.21;37.45;56.80;;
72686;Laerm;61365;52.162;4.500;2024-01-15T01:23:24;44.26;36.04;56.60;;
72686;Laerm;61365;52.162;4.500;2024-01-15T01:25:50;44.31;35.77;57.10;;
72686;Laerm;61365;52.162;4.500;2024-01-15T01:28:16;44.27;35.47;57.03;;
72686;Laerm;61365;52.162;4.500;2024-01-15T01:30:42;44.28;37.35;57.09;;
72686;Laerm;61365;52.162;4.500;2024-01-15T01:33:08;44.13;37.66;56.01;;
72686;Laerm;61365;52.162;4.500;2024-01-15T01:35:34;44.26;35.83;57.00;;
72686;Laerm;61365;52.162;4.500;2024-01-15T01:38:00;44.44;36.16;56.76;;
72686;Laerm;61365;52.162;4.500;2024-01-15T01:40:27;44.34;35.59;56.83;;
72686;Laerm;61365;52.162;4.500;2024-01-15T01:42:53;44.28;36.51;56.18;;
72686;Laerm;61365;52.162;4.500;2024-01-15T01:45:19;44.29;36.28;57.57;;
72686;Laerm;61365;52.162;4.500;2024-01-15T01:47:45;44.24;36.99;56.73;;
72686;Laerm;61365;52.162;4.500;2024-01-15T01:50:12;44.28;38.02;56.61;;
72686;Laerm;61365;52.162;4.500;2024-01-15T01:52:39;44.21;35.59;56.91;;
72686;Laerm;61365;52.162;4.500;2024-01-15T01:55:07;44.22;37.21;57.19;;
72686;Laerm;61365;52.162;4.500;2024-01-15T01:57:35;44.26;35.23;55.84;;
72686;Laerm;61365;52.162;4.500;2024-01-15T02:00:02;44.28;35.55;56.47;;
72686;Laerm;61365;52.162;4.500;2024-01-15T02:02:31;44.34;36.61;57.17;;
72686;Laerm;61365;52.162;4.500;2024-01-15T02:04:57;44.40;35.83;56.95;;
72686;Laerm;61365;52.162;4.500;2024-01-15T02:07:23;44.24;36.73;57.54;;
72686;Laerm;61365;52.162;4.500;2024-01-15T02:09:49;44.34;35.59;56.83;;
72686;Laerm;61365;52.162;4.500;2024-01-15T02:12:16;44.35;35.33;55.60;;
72686;Laerm;61365;52.162;4.500;2024-01-15T02:14:42;44.28;35.88;56.93;;
72686;Laerm;61365;52.162;4.500;2024-01-15T02:17:08;44.35;35.16;56.34;;
72686;Laerm;61365;52.162;4.500;2024-01-15T02:19:34;44.42;35.06;57.65;;
72686;Laerm;61365;52.162;4.500;2024-01-15T02:22:00;44.34;34.88;57.06;;
72686;Laerm;61365;52.162;4.500;2024-01-15T02:24:26;44.33;35.87;56.17;;
72686;Laerm;61365;52.162;4.500;2024-01-15T02:26:53;44.37;34.74;57.09;;
72686;Laerm;61365;52.162;4.500;2024-01-15T02:29:19;44.23;35.64;56.40;;
72686;Laerm;61365;52.162;4.500;2024-01-15T02:31:45;44.23;35.79;57.08;;
72686;Laerm;61365;52.162;4.500;2024-01-15T02:34:11;44.29;36.20;57.01;;
72686;Laerm;61365;52.162;4.500;2024-01-15T02:36:37;44.34;36.26;57.69;;
72686;Laerm;61365;52.162;4.500;2024-01-15T02:39:03;44.25;36.13;57.05;;
72686;Laerm;61365;52.162;4.500;2024-01-15T02:41:29;44.38;35.79;57.66;;
72686;Laerm;61365;52.162;4.500;2024-01-15T02:43:55;44.45;35.96;56.31;;
72686;Laerm;61365;52.162;4.500;2024-01-15T02:46:21;44.33;36.50;56.53;;
72686;Laerm;61365;52.162;4.500;2024-01-15T02:48:47;44.35;35.35;57.15;;
72686;Laerm;61365;52.162;4.500;2024-01-15T02:51:13;44.30;35.34;56.66;;
72686;Laerm;61365;52.162;4.500;2024-01-15T02:53:40;44.39;35.90;57.29;;
72686;Laerm;61365;52.162;4.500;2024-01-15T02:56:07;44.41;36.30;57.41;;
72686;Laerm;61365;52.162;4.500;2024-01-15T02:58:33;44.45;34.45;57.17;;
72686;Laerm;61365;52.162;4.500;2024-01-15T03:00:59;44.36;37.20;56.14;;
72686;Laerm;61365;52.162;4.500;2024-01-15T03:03:25;44.31;36.67;55.98;;
72686;Laerm;61365;52.162;4.500;2024-01-15T03:05:51;44.16;36.06;57.18;;
72686;Laerm;61365;52.162;4.500;2024-01-15T03:08:17;44.21;36.13;55.90;;
72686;Laerm;61365;52.162;4.500;2024-01-15T03:10:43;44.28;35.53;56.20;;
72686;Laerm;61365;52.162;4.500;2024-01-15T03:13:09;44.16;36.35;55.37;;
72686;Laerm;61365;52.162;4.500;2024-01-15T03:15:35;44.35;36.76;57.19;;
72686;Laerm;61365;52.162;4.500;2024-01-15T03:18:02;44.34;36.94;56.79;;
72686;Laerm;61365;52.162;4.500;2024-01-15T03:20:28;44.22;37.65;56.66;;
72686;Laerm;61365;52.162;4.500;2024-01-15T03:22:54;44.29;37.29;57.90;;
72686;Laerm;61365;52.162;4.500;2024-01-15T03:25:20;44.30;35.36;56.46;;
72686;Laerm;61365;52.162;4.500;2024-01-15T03:27:46;44.30;34.98;56.79;;
72686;Laerm;61365;52.162;4.500;2024-01-15T03:30:12;44.28;35.80;56.46;;
72686;Laerm;61365;52.162;4.500;2024-01-15T03:32:39;44.27;36.13;56.61;;
72686;Laerm;61365;52.162;4.500;2024-01-15T03:35:05;44.34;35.32;55.99;;
72686;Laerm;61365;52.162;4.500;2024-01-15T03:37:32;44.38;36.31;56.76;;
72686;Laerm;61365;52.162;4.500;2024-01-15T03:39:58;44.35;35.73;56.04;;
72686;Laerm;61365;52.162;4.500;2024-01-15T03:42:24;44.40;36.10;57.96;;
72686;Laerm;61365;52.162;4.500;2024-01-15T03:44:50;44.22;35.18;56.89;;
72686;Laerm;61365;52.162;4.500;2024-01-15T03:47:16;44.24;36.56;55.93;;
72686;Laerm;61365;52.162;4.500;2024-01-15T03:49:42;44.22;35.81;56.21;;
72686;Laerm;61365;52.162;4.500;2024-01-15T03:52:08;44.46;35.13;57.68;;
72686;Laerm;61365;52.162;4.500;2024-01-15T03:54:34;44.50;35.99;56.77;;
72686;Laerm;61365;52.162;4.500;2024-01-15T03:57:00;44.52;37.08;56.97;;
72686;Laerm;61365;52.162;4.500;2024-01-15T03:59:26;44.33;35.21;57.32;;
72686;Laerm;61365;52.162;4.500;2024-01-15T04:01:52;44.41;36.00;56.87;;
72686;Laerm;61365;52.162;4.500;2024-01-15T04:04:18;44.52;35.90;58.22;;
72686;Laerm;61365;52.162;4.500;2024-01-15T04:06:44;44.53;37.60;56.56;;
72686;Laerm;61365;52.162;4.500;2024-01-15T04:09:12;44.37;36.94;57.97;;
72686;Laerm;61365;52.162;4.500;2024-01-15T04:11:39;44.38;37.02;56.24;;
72686;Laerm;61365;52.162;4.500;2024-01-15T04:14:05;44.36;35.74;55.89;;
72686;Laerm;61365;52.162;4.500;2024-01-15T04:16:31;44.31;35.70;57.06;;
72686;Laerm;61365;52.162;4.500;2024-01-15T04:18:57;44.29;35.31;57.35;;
72686;Laerm;61365;52.162;4.500;2024-01-15T04:21:24;44.29;35.53;55.78;;
72686;Laerm;61365;52.162;4.500;2024-01-15T04:23:50;44.58;36.22;57.39;;
72686;Laerm;61365;52.162;4.500;2024-01-15T04:26:16;44.32;34.59;56.20;;
72686;Laerm;61365;52.162;4.500;2024-01-15T04:28:42;44.24;36.76;56.32;;
72686;Laerm;61365;52.162;4.500;2024-01-15T04:31:08;44.31;35.00;56.63;;
72686;Laerm;61365;52.162;4.500;2024-01-15T04:33:34;44.28;35.71;57.32;;
72686;Laerm;61365;52.162;4.500;2024-01-15T04:36:06;44.23;35.62;56.70;;
72686;Laerm;61365;52.162;4.500;2024-01-15T04:38:32;44.29;37.15;58.25;;
72686;Laerm;61365;52.162;4.500;2024-01-15T04:40:59;44.45;35.20;56.52;;
72686;Laerm;61365;52.162;4.500;2024-01-15T04:43:25;44.49;36.22;56.55;;
72686;Laerm;61365;52.162;4.500;2024-01-15T04:45:51;44.38;35.95;56.63;;
72686;Laerm;61365;52.162;4.500;2024-01-15T04:48:17;44.41;36.22;56.56;;
72686;Laerm;61365;52.162;4.500;2024-01-15T04:50:43;44.48;35.06;56.84;;
72686;Laerm;61365;52.162;4.500;2024-01-15T04:53:09;44.51;35.77;56.06;;
72686;Laerm;61365;52.162;4.500;2024-01-15T04:55:35;44.42;35.80;56.50;;
72686;Laerm;61365;52.162;4.500;2024-01-15T04:58:02;44.49;36.19;57.80;;
72686;Laerm;61365;52.162;4.500;2024-01-15T05:00:28;44.41;35.50;57.50;;
72686;Laerm;61365;52.162;4.500;2024-01-15T05:02:54;44.37;36.75;55.60;;
72686;Laerm;61365;52.162;4.500;2024-01-15T05:05:20;44.44;35.46;56.54;;
72686;Laerm;61365;52.162;4.500;2024-01-15T05:07:46;44.35;37.08;57.99;;
72686;Laerm;61365;52.162;4.500;2024-01-15T05:10:12;44.34;36.58;56.77;;
72686;Laerm;61365;52.162;4.500;2024-01-15T05:12:38;44.45;36.01;57.12;;
72686;Laerm;61365;52.162;4.500;2024-01-15T05:15:04;44.42;36.14;57.40;;
72686;Laerm;61365;52.162;4.500;2024-01-15T05:17:30;44.24;37.46;55.73;;
72686;Laerm;61365;52.162;4.500;2024-01-15T05:19:57;44.48;36.44;56.89;;
72686;Laerm;61365;52.162;4.500;2024-01-15T05:22:23;44.38;35.77;57.09;;
72686;Laerm;61365;52.162;4.500;2024-01-15T05:24:50;44.40;36.30;55.88;;
72686;Laerm;61365;52.162;4.500;2024-01-15T05:27:16;44.43;35.97;56.66;;
72686;Laerm;61365;52.162;4.500;2024-01-15T05:29:42;44.39;34.96;56.41;;
72686;Laerm;61365;52.162;4.500;2024-01-15T05:32:08;44.54;37.53;57.41;;
72686;Laerm;61365;52.162;4.500;2024-01-15T05:34:34;44.43;38.02;56.12;;
72686;Laerm;61365;52.162;4.500;2024-01-15T05:37:00;44.49;35.53;55.85;;
72686;Laerm;61365;52.162;4.500;2024-01-15T05:39:26;44.34;38.56;55.31;;
72686;Laerm;61365;52.162;4.500;2024-01-15T05:41:53;44.59;36.30;57.04;;
72686;Laerm;61365;52.162;4.500;2024-01-15T05:44:19;44.52;36.54;56.06;;
72686;Laerm;61365;52.162;4.500;2024-01-15T05:46:45;44.59;36.24;57.21;;
72686;Laerm;61365;52.162;4.500;2024-01-15T05:49:11;44.47;37.03;57.33;;
72686;Laerm;61365;52.162;4.500;2024-01-15T05:51:37;44.38;37.20;57.23;;
72686;Laerm;61365;52.162;4.500;2024-01-15T05:54:03;44.39;37.05;56.79;;
72686;Laerm;61365;52.162;4.500;2024-01-15T05:56:29;44.30;34.84;55.95;;
72686;Laerm;61365;52.162;4.500;2024-01-15T05:58:55;44.40;35.84;56.32;;
72686;Laerm;61365;52.162;4.500;2024-01-15T06:01:21;44.31;35.23;56.58;;
72686;Laerm;61365;52.162;4.500;2024-01-15T06:03:47;44.41;35.96;58.40;;
72686;Laerm;61365;52.162;4.500;2024-01-15T06:06:13;44.51;36.54;57.14;;
72686;Laerm;61365;52.162;4.500;2024-01-15T06:08:39;44.36;36.76;56.22;;
72686;Laerm;61365;52.162;4.500;2024-01-15T06:11:06;44.44;36.15;56.59;;
72686;Laerm;61365;52.162;4.500;2024-01-15T06:13:33;44.47;36.70;56.58;;
72686;Laerm;61365;52.162;4.500;2024-01-15T06:15:59;44.47;36.79;56.62;;
72686;Laerm;61365;52.162;4.500;2024-01-15T06:18:25;44.48;36.58;56.16;;
72686;Laerm;61365;52.162;4.500;2024-01-15T06:20:51;44.42;36.25;56.34;;
72686;Laerm;61365;52.162;4.500;2024-01-15T06:23:17;44.30;36.74;56.12;;
72686;Laerm;61365;52.162;4.500;2024-01-15T06:25:43;44.42;34.76;55.97;;
72686;Laerm;61365;52.162;4.500;2024-01-15T06:28:09;44.35;35.93;56.74;;
72686;Laerm;61365;52.162;4.500;2024-01-15T06:30:35;44.31;36.06;55.61;;
72686;Laerm;61365;52.162;4.500;2024-01-15T06:33:02;44.51;36.23;57.63;;
72686;Laerm;61365;52.162;4.500;2024-01-15T06:35:28;44.34;37.30;56.96;;
72686;Laerm;61365;52.162;4.500;2024-01-15T06:37:54;44.44;35.94;55.66;;
72686;Laerm;61365;52.162;4.500;2024-01-15T06:40:20;44.47;36.34;56.30;;
72686;Laerm;61365;52.162;4.500;2024-01-15T06:42:46;44.39;36.43;55.91;;
72686;Laerm;61365;52.162;4.500;2024-01-15T06:45:12;44.48;35.71;57.03;;
72686;Laerm;61365;52.162;4.500;2024-01-15T06:47:38;44.47;35.79;56.41;;
72686;Laerm;61365;52.162;4.500;2024-01-15T06:50:05;44.46;36.65;56.80;;
72686;Laerm;61365;52.162;4.500;2024-01-15T06:52:32;44.53;35.56;58.05;;
72686;Laerm;61365;52.162;4.500;2024-01-15T06:54:58;44.48;37.19;57.14;;
72686;Laerm;61365;52.162;4.500;2024-01-15T06:57:24;44.55;36.18;58.78;;
72686;Laerm;61365;52.162;4.500;2024-01-15T06:59:51;44.49;36.05;56.63;;
72686;Laerm;61365;52.162;4.500;2024-01-15T07:02:17;44.43;38.97;56.12;;
72686;Laerm;61365;52.162;4.500;2024-01-15T07:04:43;44.40;37.72;55.94;;
72686;Laerm;61365;52.162;4.500;2024-01-15T07:07:09;44.47;34.69;57.41;;
72686;Laerm;61365;52.162;4.500;2024-01-15T07:09:35;44.39;36.30;57.18;;
72686;Laerm;61365;52.162;4.500;2024-01-15T07:12:01;44.57;36.68;57.66;;
72686;Laerm;61365;52.162;4.500;2024-01-15T07:14:27;44.41;35.29;56.75;;
72686;Laerm;61365;52.162;4.500;2024-01-15T07:16:53;44.46;37.63;56.58;;
72686;Laerm;61365;52.162;4.500;2024-01-15T07:19:19;44.52;37.54;58.67;;
72686;Laerm;61365;52.162;4.500;2024-01-15T07:21:45;44.43;35.91;57.04;;
72686;Laerm;61365;52.162;4.500;2024-01-15T07:24:12;44.49;36.27;56.58;;
72686;Laerm;61365;52.162;4.500;2024-01-15T07:26:38;44.45;36.90;56.77;;
72686;Laerm;61365;52.162;4.500;2024-01-15T07:29:04;44.48;34.74;57.44;;
72686;Laerm;61365;52.162;4.500;2024-01-15T07:31:30;44.45;35.11;55.73;;
72686;Laerm;61365;52.162;4.500;2024-01-15T07:33:56;44.53;36.13;56.42;;
72686;Laerm;61365;52.162;4.500;2024-01-15T07:36:22;44.59;36.51;56.94;;
72686;Laerm;61365;52.162;4.500;2024-01-15T07:38:48;44.65;37.61;57.20;;
72686;Laerm;61365;52.162;4.500;2024-01-15T07:41:15;44.53;36.97;56.48;;
72686;Laerm;61365;52.162;4.500;2024-01-15T07:43:41;44.60;37.43;56.65;;
72686;Laerm;61365;52.162;4.500;2024-01-15T07:46:07;44.51;36.00;56.56;;
72686;Laerm;61365;52.162;4.500;2024-01-15T07:48:33;44.49;35.93;56.75;;
72686;Laerm;61365;52.162;4.500;2024-01-15T07:51:00;44.62;35.42;58.08;;
72686;Laerm;61365;52.162;4.500;2024-01-15T07:53:26;44.66;36.36;56.83;;
72686;Laerm;61365;52.162;4.500;2024-01-15T07:55:52;44.52;37.41;57.43;;
72686;Laerm;61365;52.162;4.500;2024-01-15T07:58:18;44.46;37.08;59.16;;
72686;Laerm;61365;52.162;4.500;2024-01-15T08:00:44;44.41;35.59;55.80;;
72686;Laerm;61365;52.162;4.500;2024-01-15T08:03:11;44.51;36.32;57.20;;
72686;Laerm;61365;52.162;4.500;2024-01-15T08:05:38;44.44;36.24;56.22;;
72686;Laerm;61365;52.162;4.500;2024-01-15T08:08:04;44.42;37.37;58.15;;
72686;Laerm;61365;52.162;4.500;2024-01-15T08:10:30;44.25;37.20;56.20;;
72686;Laerm;61365;52.162;4.500;2024-01-15T08:12:56;44.29;34.86;55.58;;
72686;Laerm;61365;52.162;4.500;2024-01-15T08:15:22;44.38;36.92;56.07;;
72686;Laerm;61365;52.162;4.500;2024-01-15T08:17:48;44.27;35.89;56.86;;
72686;Laerm;61365;52.162;4.500;2024-01-15T08:20:14;44.32;36.12;56.18;;
72686;Laerm;61365;52.162;4.500;2024-01-15T08:22:41;44.36;36.99;56.25;;
72686;Laerm;61365;52.162;4.500;2024-01-15T08:25:08;44.27;36.74;56.03;;
72686;Laerm;61365;52.162;4.500;2024-01-15T08:27:34;44.34;35.68;55.38;;
72686;Laerm;61365;52.162;4.500;2024-01-15T08:30:03;44.32;35.17;56.98;;
72686;Laerm;61365;52.162;4.500;2024-01-15T08:32:30;44.40;35.34;56.56;;
72686;Laerm;61365;52.162;4.500;2024-01-15T08:34:56;44.23;36.85;56.04;;
72686;Laerm;61365;52.162;4.500;2024-01-15T08:37:22;44.24;36.27;57.80;;
72686;Laerm;61365;52.162;4.500;2024-01-15T08:39:48;44.42;34.42;56.03;;
72686;Laerm;61365;52.162;4.500;2024-01-15T08:42:14;44.33;36.49;56.60;;
72686;Laerm;61365;52.162;4.500;2024-01-15T08:44:40;44.42;35.24;56.46;;
72686;Laerm;61365;52.162;4.500;2024-01-15T08:47:09;44.54;37.22;58.74;;
72686;Laerm;61365;52.162;4.500;2024-01-15T08:49:35;44.57;36.47;57.21;;
72686;Laerm;61365;52.162;4.500;2024-01-15T08:52:02;44.57;35.87;56.67;;
72686;Laerm;61365;52.162;4.500;2024-01-15T08:54:28;44.77;37.86;57.52;;
72686;Laerm;61365;52.162;4.500;2024-01-15T08:56:54;44.73;36.35;57.18;;
72686;Laerm;61365;52.162;4.500;2024-01-15T08:59:20;44.59;36.53;56.98;;
72686;Laerm;61365;52.162;4.500;2024-01-15T09:01:50;44.56;34.96;56.15;;
72686;Laerm;61365;52.162;4.500;2024-01-15T09:04:16;44.57;36.36;58.28;;
72686;Laerm;61365;52.162;4.500;2024-01-15T09:06:46;44.50;36.01;56.98;;
72686;Laerm;61365;52.162;4.500;2024-01-15T09:09:15;44.41;35.33;56.13;;
72686;Laerm;61365;52.162;4.500;2024-01-15T09:11:41;44.40;35.21;55.77;;
72686;Laerm;61365;52.162;4.500;2024-01-15T09:14:07;44.42;36.18;55.93;;
72686;Laerm;61365;52.162;4.500;2024-01-15T09:16:35;44.51;36.90;57.76;;
72686;Laerm;61365;52.162;4.500;2024-01-15T09:19:01;44.43;36.88;56.36;;
72686;Laerm;61365;52.162;4.500;2024-01-15T09:21:27;44.42;35.67;55.40;;
72686;Laerm;61365;52.162;4.500;2024-01-15T09:23:53;44.43;37.65;57.66;;
72686;Laerm;61365;52.162;4.500;2024-01-15T09:26:19;44.38;36.26;56.34;;
72686;Laerm;61365;52.162;4.500;2024-01-15T09:28:45;44.36;35.28;56.50;;
72686;Laerm;61365;52.162;4.500;2024-01-15T09:31:11;44.50;35.46;56.71;;
72686;Laerm;61365;52.162;4.500;2024-01-15T09:33:37;44.37;36.82;56.22;;
72686;Laerm;61365;52.162;4.500;2024-01-15T09:36:04;44.28;36.94;55.97;;
72686;Laerm;61365;52.162;4.500;2024-01-15T09:38:31;44.33;36.29;56.16;;
72686;Laerm;61365;52.162;4.500;2024-01-15T09:40:58;44.25;37.88;56.21;;
72686;Laerm;61365;52.162;4.500;2024-01-15T09:43:24;44.35;37.87;55.66;;
72686;Laerm;61365;52.162;4.500;2024-01-15T09:45:51;44.42;35.65;56.26;;
72686;Laerm;61365;52.162;4.500;2024-01-15T09:48:17;44.41;35.68;58.04;;
72686;Laerm;61365;52.162;4.500;2024-01-15T09:50:43;44.40;35.09;56.66;;
72686;Laerm;61365;52.162;4.500;2024-01-15T09:53:09;44.42;37.41;56.85;;
72686;Laerm;61365;52.162;4.500;2024-01-15T09:55:39;44.40;36.68;56.36;;
72686;Laerm;61365;52.162;4.500;2024-01-15T09:58:05;44.34;38.46;57.15;;
72686;Laerm;61365;52.162;4.500;2024-01-15T10:00:33;44.37;35.67;56.02;;
72686;Laerm;61365;52.162;4.500;2024-01-15T10:02:59;44.40;36.91;57.45;;
72686;Laerm;61365;52.162;4.500;2024-01-15T10:05:29;44.50;35.19;56.54;;
72686;Laerm;61365;52.162;4.500;2024-01-15T10:07:56;44.42;35.62;55.98;;
72686;Laerm;61365;52.162;4.500;2024-01-15T10:10:23;44.45;37.22;57.17;;
72686;Laerm;61365;52.162;4.500;2024-01-15T10:12:49;44.38;37.09;56.39;;
72686;Laerm;61365;52.162;4.500;2024-01-15T10:15:16;44.41;38.41;58.90;;
72686;Laerm;61365;52.162;4.500;2024-01-15T10:17:43;44.31;36.76;56.42;;
72686;Laerm;61365;52.162;4.500;2024-01-15T10:20:10;44.30;36.40;56.04;;
72686;Laerm;61365;52.162;4.500;2024-01-15T10:22:40;44.24;36.31;56.57;;
72686;Laerm;61365;52.162;4.500;2024-01-15T10:25:13;44.45;36.05;56.91;;
72686;Laerm;61365;52.162;4.500;2024-01-15T10:27:40;44.29;36.51;56.99;;
72686;Laerm;61365;52.162;4.500;2024-01-15T10:30:08;44.42;36.81;57.15;;
72686;Laerm;61365;52.162;4.500;2024-01-15T10:32:35;44.40;35.09;56.78;;
72686;Laerm;61365;52.162;4.500;2024-01-15T10:35:01;44.37;36.15;57.17;;
72686;Laerm;61365;52.162;4.500;2024-01-15T10:37:27;44.23;36.22;57.06;;
72686;Laerm;61365;52.162;4.500;2024-01-15T10:39:53;44.28;37.85;56.05;;
72686;Laerm;61365;52.162;4.500;2024-01-15T10:42:19;44.23;36.16;56.33;;
72686;Laerm;61365;52.162;4.500;2024-01-15T10:44:45;44.38;37.46;56.62;;
72686;Laerm;61365;52.162;4.500;2024-01-15T10:47:15;44.22;36.43;55.43;;
72686;Laerm;61365;52.162;4.500;2024-01-15T10:49:41;44.29;35.63;56.90;;
72686;Laerm;61365;52.162;4.500;2024-01-15T10:52:08;44.32;35.13;58.10;;
72686;Laerm;61365;52.162;4.500;2024-01-15T10:54:35;44.31;35.91;58.53;;
72686;Laerm;61365;52.162;4.500;2024-01-15T10:57:03;44.23;36.65;56.12;;
72686;Laerm;61365;52.162;4.500;2024-01-15T10:59:29;44.23;36.78;55.78;;
72686;Laerm;61365;52.162;4.500;2024-01-15T11:01:56;44.32;34.85;56.15;;
72686;Laerm;61365;52.162;4.500;2024-01-15T11:04:22;44.41;36.98;58.13;;
72686;Laerm;61365;52.162;4.500;2024-01-15T11:06:51;44.41;35.79;58.48;;
72686;Laerm;61365;52.162;4.500;2024-01-15T11:09:19;44.15;35.64;57.06;;
72686;Laerm;61365;52.162;4.500;2024-01-15T11:11:46;44.07;36.37;56.79;;
72686;Laerm;61365;52.162;4.500;2024-01-15T11:14:34;44.27;35.75;56.63;;
72686;Laerm;61365;52.162;4.500;2024-01-15T11:17:01;44.04;34.81;55.93;;
72686;Laerm;61365;52.162;4.500;2024-01-15T11:19:56;44.19;35.87;55.89;;
72686;Laerm;61365;52.162;4.500;2024-01-15T11:24:57;44.17;36.52;55.56;;
72686;Laerm;61365;52.162;4.500;2024-01-15T11:27:44;44.17;37.07;58.03;;
72686;Laerm;61365;52.162;4.500;2024-01-15T11:30:11;44.25;35.29;56.52;;
72686;Laerm;61365;52.162;4.500;2024-01-15T11:32:38;44.34;34.92;57.17;;
72686;Laerm;61365;52.162;4.500;2024-01-15T11:35:12;44.30;34.95;56.68;;
72686;Laerm;61365;52.162;4.500;2024-01-15T11:40:22;44.20;37.89;56.76;;
72686;Laerm;61365;52.162;4.500;2024-01-15T11:42:49;44.29;36.42;56.49;;
72686;Laerm;61365;52.162;4.500;2024-01-15T11:45:18;44.21;36.68;55.42;;
72686;Laerm;61365;52.162;4.500;2024-01-15T11:48:09;44.27;35.69;56.04;;
72686;Laerm;61365;52.162;4.500;2024-01-15T11:50:43;44.29;34.93;58.12;;
72686;Laerm;61365;52.162;4.500;2024-01-15T11:53:53;44.26;35.72;56.64;;
72686;Laerm;61365;52.162;4.500;2024-01-15T11:56:21;44.44;36.00;56.56;;
72686;Laerm;61365;52.162;4.500;2024-01-15T11:58:48;44.30;36.50;56.77;;
72686;Laerm;61365;52.162;4.500;2024-01-15T12:01:16;44.40;35.05;56.51;;
72686;Laerm;61365;52.162;4.500;2024-01-15T12:03:44;44.33;35.90;57.00;;
72686;Laerm;61365;52.162;4.500;2024-01-15T12:06:10;44.40;35.32;56.47;;
72686;Laerm;61365;52.162;4.500;2024-01-15T12:08:37;44.28;35.51;56.75;;
72686;Laerm;61365;52.162;4.500;2024-01-15T12:11:07;44.39;36.92;57.30;;
72686;Laerm;61365;52.162;4.500;2024-01-15T12:13:36;44.28;35.79;57.99;;
72686;Laerm;61365;52.162;4.500;2024-01-15T12:16:03;44.20;36.65;56.45;;
72686;Laerm;61365;52.162;4.500;2024-01-15T12:18:30;44.25;36.01;55.56;;
72686;Laerm;61365;52.162;4.500;2024-01-15T12:20:57;44.36;36.79;57.10;;
72686;Laerm;61365;52.162;4.500;2024-01-15T12:23:24;44.25;35.83;56.71;;
72686;Laerm;61365;52.162;4.500;2024-01-15T12:25:50;44.19;35.17;56.84;;
72686;Laerm;61365;52.162;4.500;2024-01-15T12:28:16;44.24;35.55;57.24;;
72686;Laerm;61365;52.162;4.500;2024-01-15T12:30:46;44.22;36.31;57.52;;
72686;Laerm;61365;52.162;4.500;2024-01-15T12:33:15;44.22;36.21;57.00;;
72686;Laerm;61365;52.162;4.500;2024-01-15T12:35:41;44.25;34.55;54.87;;
72686;Laerm;61365;52.162;4.500;2024-01-15T12:38:07;44.20;36.98;55.51;;
72686;Laerm;61365;52.162;4.500;2024-01-15T12:40:33;44.30;35.31;55.48;;
72686;Laerm;61365;52.162;4.500;2024-01-15T12:43:00;44.20;34.78;56.76;;
72686;Laerm;61365;52.162;4.500;2024-01-15T12:45:27;44.29;36.32;56.28;;
72686;Laerm;61365;52.162;4.500;2024-01-15T12:47:54;44.18;36.45;57.40;;
72686;Laerm;61365;52.162;4.500;2024-01-15T12:50:24;44.25;34.78;58.44;;
72686;Laerm;61365;52.162;4.500;2024-01-15T12:52:51;44.28;36.93;57.61;;
72686;Laerm;61365;52.162;4.500;2024-01-15T12:55:17;44.22;35.95;56.85;;
72686;Laerm;61365;52.162;4.500;2024-01-15T12:57:43;44.04;36.48;55.81;;
72686;Laerm;61365;52.162;4.500;2024-01-15T13:00:11;44.15;37.03;56.21;;
72686;Laerm;61365;52.162;4.500;2024-01-15T13:02:39;44.26;36.10;56.11;;
72686;Laerm;61365;52.162;4.500;2024-01-15T13:05:07;44.29;36.67;57.01;;
72686;Laerm;61365;52.162;4.500;2024-01-15T13:07:34;44.23;36.60;56.93;;
72686;Laerm;61365;52.162;4.500;2024-01-15T13:10:00;44.12;35.52;54.89;;
72686;Laerm;61365;52.162;4.500;2024-01-15T13:12:26;44.20;35.65;56.15;;
72686;Laerm;61365;52.162;4.500;2024-01-15T13:14:52;44.27;36.64;56.21;;
72686;Laerm;61365;52.162;4.500;2024-01-15T13:17:18;44.20;34.79;56.86;;
72686;Laerm;61365;52.162;4.500;2024-01-15T13:19:46;44.18;35.27;56.75;;
72686;Laerm;61365;52.162;4.500;2024-01-15T13:22:12;44.23;36.65;57.40;;
72686;Laerm;61365;52.162;4.500;2024-01-15T13:24:40;44.21;36.48;57.84;;
72686;Laerm;61365;52.162;4.500;2024-01-15T13:27:06;44.24;35.10;55.29;;
72686;Laerm;61365;52.162;4.500;2024-01-15T13:29:32;44.14;35.21;57.29;;
72686;Laerm;61365;52.162;4.500;2024-01-15T13:31:59;44.19;35.66;56.80;;
72686;Laerm;61365;52.162;4.500;2024-01-15T13:34:26;44.22;37.22;56.17;;
72686;Laerm;61365;52.162;4.500;2024-01-15T13:36:52;44.18;36.10;55.97;;
72686;Laerm;61365;52.162;4.500;2024-01-15T13:39:20;44.35;36.34;56.96;;
72686;Laerm;61365;52.162;4.500;2024-01-15T13:41:46;44.21;35.56;56.37;;
72686;Laerm;61365;52.162;4.500;2024-01-15T13:44:12;44.33;35.25;56.38;;
72686;Laerm;61365;52.162;4.500;2024-01-15T13:46:39;44.36;36.56;56.87;;